Webster Mills, Pennsylvania
Current Conditions -  °F | °C
As of 8:53 PM on Tuesday 21 Oct 2014 (Local Time) from KHGR Reporting Station
Scattered Clouds Scattered Clouds  
Wind Chill: 51°   Ceiling: Unl
Heat Index: 51°   Visibility: 10mi
Dew Point: 48°   Wind: 3mph
Humidity: 89%   Direction: 300°WNW
Pressure: 29.91"   Gusts: NA
Location:  39.973°N, 77.9661°W
Report Text: KHGR 220053Z 30003KT 10SM SCT100 11/09 A2991 RMK AO2 SLP138 T01060089
Loading
Personal Weather Stations






























Interactive Weather Map
Tropical Storm Tracking
New forecast layout! Learn more

10-Day Weather Forecast

Advertisements
Track Severe Weather on mobile